sensor_id;sensor_type;location;lat;lon;timestamp;pressure;altitude;pressure_sealevel;temperature;humidity
55755;BME280;41674;52.290;-1.474;2023-03-18T00:02:29;99766.95;;;12.66;80.39
55755;BME280;41674;52.290;-1.474;2023-03-18T00:04:58;99768.51;;;13.04;78.72
55755;BME280;41674;52.290;-1.474;2023-03-18T00:07:28;99770.09;;;12.95;78.12
55755;BME280;41674;52.290;-1.474;2023-03-18T00:09:57;99767.53;;;12.09;81.73
55755;BME280;41674;52.290;-1.474;2023-03-18T00:12:27;99769.54;;;12.09;81.22
55755;BME280;41674;52.290;-1.474;2023-03-18T00:14:57;99769.78;;;12.21;80.53
55755;BME280;41674;52.290;-1.474;2023-03-18T00:17:26;99770.71;;;12.06;82.53
55755;BME280;41674;52.290;-1.474;2023-03-18T00:19:55;99772.01;;;11.29;85.25
55755;BME280;41674;52.290;-1.474;2023-03-18T00:22:25;99770.39;;;12.08;82.05
55755;BME280;41674;52.290;-1.474;2023-03-18T00:24:55;99770.20;;;11.38;85.05
55755;BME280;41674;52.290;-1.474;2023-03-18T00:27:24;99764.32;;;10.32;89.67
55755;BME280;41674;52.290;-1.474;2023-03-18T00:29:54;99758.09;;;11.79;85.27
55755;BME280;41674;52.290;-1.474;2023-03-18T00:32:25;99758.55;;;12.19;83.50
55755;BME280;41674;52.290;-1.474;2023-03-18T00:34:53;99763.28;;;12.15;82.25
55755;BME280;41674;52.290;-1.474;2023-03-18T00:37:23;99765.66;;;12.72;81.23
55755;BME280;41674;52.290;-1.474;2023-03-18T00:39:52;99771.88;;;12.08;83.10
55755;BME280;41674;52.290;-1.474;2023-03-18T00:42:22;99774.82;;;11.03;86.70
55755;BME280;41674;52.290;-1.474;2023-03-18T00:44:51;99773.24;;;12.52;82.88
55755;BME280;41674;52.290;-1.474;2023-03-18T00:47:21;99772.70;;;11.99;83.20
55755;BME280;41674;52.290;-1.474;2023-03-18T00:49:50;99771.64;;;11.91;84.65
55755;BME280;41674;52.290;-1.474;2023-03-18T00:52:20;99774.86;;;11.43;85.81
55755;BME280;41674;52.290;-1.474;2023-03-18T00:54:50;99780.20;;;11.37;86.23
55755;BME280;41674;52.290;-1.474;2023-03-18T00:57:19;99777.72;;;11.25;88.43
55755;BME280;41674;52.290;-1.474;2023-03-18T00:59:49;99775.62;;;11.56;86.56
55755;BME280;41674;52.290;-1.474;2023-03-18T01:02:18;99771.01;;;11.55;87.38
55755;BME280;41674;52.290;-1.474;2023-03-18T01:04:48;99770.23;;;11.18;87.23
55755;BME280;41674;52.290;-1.474;2023-03-18T01:07:18;99769.90;;;11.34;87.03
55755;BME280;41674;52.290;-1.474;2023-03-18T01:09:47;99770.12;;;11.96;84.56
55755;BME280;41674;52.290;-1.474;2023-03-18T01:12:17;99774.95;;;11.39;87.24
55755;BME280;41674;52.290;-1.474;2023-03-18T01:14:46;99772.56;;;11.45;86.77
55755;BME280;41674;52.290;-1.474;2023-03-18T01:17:16;99767.88;;;12.19;84.47
55755;BME280;41674;52.290;-1.474;2023-03-18T01:19:46;99774.05;;;10.73;88.03
55755;BME280;41674;52.290;-1.474;2023-03-18T01:22:15;99775.57;;;11.50;85.37
55755;BME280;41674;52.290;-1.474;2023-03-18T01:24:44;99777.69;;;12.22;83.32
55755;BME280;41674;52.290;-1.474;2023-03-18T01:27:14;99774.25;;;12.20;83.72
55755;BME280;41674;52.290;-1.474;2023-03-18T01:29:43;99765.44;;;12.73;81.61
55755;BME280;41674;52.290;-1.474;2023-03-18T01:32:13;99765.24;;;12.53;81.47
55755;BME280;41674;52.290;-1.474;2023-03-18T01:34:42;99764.58;;;12.54;80.97
55755;BME280;41674;52.290;-1.474;2023-03-18T01:37:12;99764.12;;;12.39;82.07
55755;BME280;41674;52.290;-1.474;2023-03-18T01:39:42;99765.89;;;12.80;80.39
55755;BME280;41674;52.290;-1.474;2023-03-18T01:42:11;99768.86;;;12.89;80.19
55755;BME280;41674;52.290;-1.474;2023-03-18T01:44:41;99764.27;;;12.62;80.79
55755;BME280;41674;52.290;-1.474;2023-03-18T01:47:11;99763.77;;;13.23;79.74
55755;BME280;41674;52.290;-1.474;2023-03-18T01:49:44;99757.29;;;12.96;79.82
55755;BME280;41674;52.290;-1.474;2023-03-18T01:52:12;99757.52;;;12.67;80.64
55755;BME280;41674;52.290;-1.474;2023-03-18T01:54:45;99758.53;;;12.70;79.69
55755;BME280;41674;52.290;-1.474;2023-03-18T01:57:09;99760.59;;;13.09;79.10
55755;BME280;41674;52.290;-1.474;2023-03-18T01:59:40;99760.91;;;13.29;78.73
55755;BME280;41674;52.290;-1.474;2023-03-18T02:02:10;99761.98;;;13.18;79.18
55755;BME280;41674;52.290;-1.474;2023-03-18T02:04:40;99761.63;;;13.17;79.10
55755;BME280;41674;52.290;-1.474;2023-03-18T02:07:13;99759.23;;;13.12;78.51
55755;BME280;41674;52.290;-1.474;2023-03-18T02:09:37;99755.29;;;12.94;79.43
55755;BME280;41674;52.290;-1.474;2023-03-18T02:12:07;99757.35;;;13.45;78.32
55755;BME280;41674;52.290;-1.474;2023-03-18T02:14:36;99754.27;;;13.54;78.13
55755;BME280;41674;52.290;-1.474;2023-03-18T02:17:08;99754.10;;;13.54;78.00
55755;BME280;41674;52.290;-1.474;2023-03-18T02:19:45;99750.79;;;13.25;78.97
55755;BME280;41674;52.290;-1.474;2023-03-18T02:22:10;99751.12;;;13.05;79.36
55755;BME280;41674;52.290;-1.474;2023-03-18T02:24:40;99751.38;;;13.27;79.07
55755;BME280;41674;52.290;-1.474;2023-03-18T02:27:14;99750.43;;;13.05;78.22
55755;BME280;41674;52.290;-1.474;2023-03-18T02:29:34;99750.04;;;13.50;78.23
55755;BME280;41674;52.290;-1.474;2023-03-18T02:32:05;99752.54;;;13.01;78.13
55755;BME280;41674;52.290;-1.474;2023-03-18T02:34:34;99750.30;;;13.57;78.34
55755;BME280;41674;52.290;-1.474;2023-03-18T02:37:02;99751.37;;;13.55;78.48
55755;BME280;41674;52.290;-1.474;2023-03-18T02:39:31;99752.28;;;13.65;78.20
55755;BME280;41674;52.290;-1.474;2023-03-18T02:42:01;99754.22;;;13.37;78.42
55755;BME280;41674;52.290;-1.474;2023-03-18T02:44:30;99754.77;;;13.28;78.82
55755;BME280;41674;52.290;-1.474;2023-03-18T02:47:03;99751.10;;;13.27;78.49
55755;BME280;41674;52.290;-1.474;2023-03-18T02:49:29;99753.24;;;13.07;79.10
55755;BME280;41674;52.290;-1.474;2023-03-18T02:51:59;99753.60;;;13.09;79.00
55755;BME280;41674;52.290;-1.474;2023-03-18T02:54:30;99752.74;;;13.13;80.04
55755;BME280;41674;52.290;-1.474;2023-03-18T02:56:58;99749.83;;;13.36;78.99
55755;BME280;41674;52.290;-1.474;2023-03-18T02:59:28;99746.12;;;13.04;78.96
55755;BME280;41674;52.290;-1.474;2023-03-18T03:01:57;99744.34;;;13.33;78.29
55755;BME280;41674;52.290;-1.474;2023-03-18T03:04:27;99748.58;;;13.42;78.83
55755;BME280;41674;52.290;-1.474;2023-03-18T03:06:56;99754.18;;;13.28;79.18
55755;BME280;41674;52.290;-1.474;2023-03-18T03:09:25;99752.36;;;13.11;79.60
55755;BME280;41674;52.290;-1.474;2023-03-18T03:11:55;99746.18;;;13.47;78.54
55755;BME280;41674;52.290;-1.474;2023-03-18T03:14:24;99752.65;;;13.36;78.92
55755;BME280;41674;52.290;-1.474;2023-03-18T03:16:54;99751.80;;;13.38;78.60
55755;BME280;41674;52.290;-1.474;2023-03-18T03:19:23;99749.92;;;12.78;79.77
55755;BME280;41674;52.290;-1.474;2023-03-18T03:21:53;99745.68;;;12.60;80.74
55755;BME280;41674;52.290;-1.474;2023-03-18T03:24:22;99747.26;;;13.31;78.80
55755;BME280;41674;52.290;-1.474;2023-03-18T03:26:52;99749.35;;;12.94;79.02
55755;BME280;41674;52.290;-1.474;2023-03-18T03:29:21;99746.57;;;13.04;80.16
55755;BME280;41674;52.290;-1.474;2023-03-18T03:31:51;99744.89;;;13.16;79.09
55755;BME280;41674;52.290;-1.474;2023-03-18T03:34:20;99743.00;;;13.42;78.09
55755;BME280;41674;52.290;-1.474;2023-03-18T03:36:50;99745.32;;;13.07;79.10
55755;BME280;41674;52.290;-1.474;2023-03-18T03:39:19;99747.95;;;12.67;79.18
55755;BME280;41674;52.290;-1.474;2023-03-18T03:41:49;99751.63;;;12.10;80.90
55755;BME280;41674;52.290;-1.474;2023-03-18T03:44:18;99754.27;;;13.00;79.26
55755;BME280;41674;52.290;-1.474;2023-03-18T03:46:48;99754.81;;;12.93;78.93
55755;BME280;41674;52.290;-1.474;2023-03-18T03:49:17;99758.98;;;13.23;78.78
55755;BME280;41674;52.290;-1.474;2023-03-18T03:51:47;99761.72;;;12.78;80.19
55755;BME280;41674;52.290;-1.474;2023-03-18T03:54:16;99764.50;;;13.19;78.76
55755;BME280;41674;52.290;-1.474;2023-03-18T03:56:46;99763.42;;;12.64;79.82
55755;BME280;41674;52.290;-1.474;2023-03-18T03:59:16;99764.18;;;13.15;79.04
55755;BME280;41674;52.290;-1.474;2023-03-18T04:01:45;99764.30;;;12.76;79.76
55755;BME280;41674;52.290;-1.474;2023-03-18T04:04:15;99766.69;;;12.55;81.57
55755;BME280;41674;52.290;-1.474;2023-03-18T04:06:44;99765.46;;;12.43;81.24
55755;BME280;41674;52.290;-1.474;2023-03-18T04:09:14;99770.11;;;12.90;79.69
55755;BME280;41674;52.290;-1.474;2023-03-18T04:11:43;99765.65;;;12.17;82.85
55755;BME280;41674;52.290;-1.474;2023-03-18T04:14:13;99764.49;;;11.19;86.38
55755;BME280;41674;52.290;-1.474;2023-03-18T04:16:43;99765.59;;;11.25;86.53
55755;BME280;41674;52.290;-1.474;2023-03-18T04:19:12;99767.38;;;10.53;89.59
55755;BME280;41674;52.290;-1.474;2023-03-18T04:21:42;99766.74;;;10.54;91.72
55755;BME280;41674;52.290;-1.474;2023-03-18T04:24:11;99766.96;;;11.07;88.91
55755;BME280;41674;52.290;-1.474;2023-03-18T04:26:41;99769.15;;;11.22;88.00
55755;BME280;41674;52.290;-1.474;2023-03-18T04:29:11;99768.45;;;11.83;84.91
55755;BME280;41674;52.290;-1.474;2023-03-18T04:31:40;99768.34;;;10.66;88.70
55755;BME280;41674;52.290;-1.474;2023-03-18T04:34:09;99767.66;;;11.29;85.74
55755;BME280;41674;52.290;-1.474;2023-03-18T04:36:39;99765.96;;;11.95;83.06
55755;BME280;41674;52.290;-1.474;2023-03-18T04:39:09;99766.52;;;12.30;81.90
55755;BME280;41674;52.290;-1.474;2023-03-18T04:41:38;99768.36;;;12.16;81.19
55755;BME280;41674;52.290;-1.474;2023-03-18T04:44:08;99772.24;;;12.57;80.33
55755;BME280;41674;52.290;-1.474;2023-03-18T04:46:38;99773.23;;;11.85;80.96
55755;BME280;41674;52.290;-1.474;2023-03-18T04:49:07;99771.61;;;11.95;80.24
55755;BME280;41674;52.290;-1.474;2023-03-18T04:51:37;99771.76;;;12.59;78.51
55755;BME280;41674;52.290;-1.474;2023-03-18T04:54:07;99771.29;;;12.75;78.26
55755;BME280;41674;52.290;-1.474;2023-03-18T04:56:36;99773.18;;;12.58;77.87
55755;BME280;41674;52.290;-1.474;2023-03-18T04:59:06;99772.58;;;12.87;77.62
55755;BME280;41674;52.290;-1.474;2023-03-18T05:01:35;99774.92;;;12.85;77.60
55755;BME280;41674;52.290;-1.474;2023-03-18T05:04:05;99776.63;;;12.65;77.75
55755;BME280;41674;52.290;-1.474;2023-03-18T05:06:34;99777.83;;;12.77;77.85
55755;BME280;41674;52.290;-1.474;2023-03-18T05:09:04;99780.05;;;11.83;81.05
55755;BME280;41674;52.290;-1.474;2023-03-18T05:11:33;99782.45;;;12.66;78.20
55755;BME280;41674;52.290;-1.474;2023-03-18T05:14:03;99783.23;;;12.50;78.10
55755;BME280;41674;52.290;-1.474;2023-03-18T05:16:32;99782.88;;;12.47;78.46
55755;BME280;41674;52.290;-1.474;2023-03-18T05:19:03;99787.25;;;12.56;78.25
55755;BME280;41674;52.290;-1.474;2023-03-18T05:21:32;99789.05;;;12.54;78.89
55755;BME280;41674;52.290;-1.474;2023-03-18T05:24:01;99785.90;;;12.86;78.46
55755;BME280;41674;52.290;-1.474;2023-03-18T05:26:31;99786.35;;;12.54;78.99
55755;BME280;41674;52.290;-1.474;2023-03-18T05:29:00;99786.47;;;12.42;78.78
55755;BME280;41674;52.290;-1.474;2023-03-18T05:31:30;99785.13;;;12.60;79.04
55755;BME280;41674;52.290;-1.474;2023-03-18T05:33:59;99792.67;;;13.05;78.53
55755;BME280;41674;52.290;-1.474;2023-03-18T05:36:29;99795.87;;;12.83;78.50
55755;BME280;41674;52.290;-1.474;2023-03-18T05:38:59;99792.81;;;12.53;79.24
55755;BME280;41674;52.290;-1.474;2023-03-18T05:41:28;99790.89;;;12.96;79.08
55755;BME280;41674;52.290;-1.474;2023-03-18T05:43:58;99791.60;;;12.75;78.84
55755;BME280;41674;52.290;-1.474;2023-03-18T05:46:28;99790.71;;;12.69;79.27
55755;BME280;41674;52.290;-1.474;2023-03-18T05:48:57;99795.14;;;12.69;78.43
55755;BME280;41674;52.290;-1.474;2023-03-18T05:51:27;99790.84;;;12.69;79.15
55755;BME280;41674;52.290;-1.474;2023-03-18T05:53:56;99794.03;;;12.88;78.61
55755;BME280;41674;52.290;-1.474;2023-03-18T05:56:26;99794.73;;;12.75;78.98
55755;BME280;41674;52.290;-1.474;2023-03-18T05:58:55;99800.31;;;12.94;78.63
55755;BME280;41674;52.290;-1.474;2023-03-18T06:01:25;99800.18;;;12.93;78.71
55755;BME280;41674;52.290;-1.474;2023-03-18T06:03:54;99798.43;;;12.94;78.73
55755;BME280;41674;52.290;-1.474;2023-03-18T06:06:24;99797.51;;;12.96;78.61
55755;BME280;41674;52.290;-1.474;2023-03-18T06:08:53;99795.14;;;13.24;78.45
55755;BME280;41674;52.290;-1.474;2023-03-18T06:11:23;99794.21;;;12.76;79.05
55755;BME280;41674;52.290;-1.474;2023-03-18T06:13:52;99797.31;;;12.86;79.10
55755;BME280;41674;52.290;-1.474;2023-03-18T06:16:22;99798.83;;;12.56;80.27
55755;BME280;41674;52.290;-1.474;2023-03-18T06:18:51;99803.93;;;12.44;80.92
55755;BME280;41674;52.290;-1.474;2023-03-18T06:21:20;99803.24;;;11.89;82.74
55755;BME280;41674;52.290;-1.474;2023-03-18T06:23:50;99807.20;;;12.12;82.18
55755;BME280;41674;52.290;-1.474;2023-03-18T06:26:20;99810.48;;;12.57;81.67
55755;BME280;41674;52.290;-1.474;2023-03-18T06:28:49;99815.98;;;11.67;84.71
55755;BME280;41674;52.290;-1.474;2023-03-18T06:31:19;99815.47;;;11.79;86.14
55755;BME280;41674;52.290;-1.474;2023-03-18T06:33:49;99818.37;;;11.49;85.67
55755;BME280;41674;52.290;-1.474;2023-03-18T06:36:19;99816.85;;;12.13;83.41
55755;BME280;41674;52.290;-1.474;2023-03-18T06:38:48;99822.58;;;11.88;84.66
55755;BME280;41674;52.290;-1.474;2023-03-18T06:41:17;99828.25;;;11.73;84.77
55755;BME280;41674;52.290;-1.474;2023-03-18T06:43:46;99827.63;;;12.42;83.68
55755;BME280;41674;52.290;-1.474;2023-03-18T06:46:16;99830.21;;;12.73;82.42
55755;BME280;41674;52.290;-1.474;2023-03-18T06:48:46;99828.48;;;12.20;83.65
55755;BME280;41674;52.290;-1.474;2023-03-18T06:51:15;99834.34;;;11.95;85.70
55755;BME280;41674;52.290;-1.474;2023-03-18T06:53:45;99835.35;;;12.06;86.97
55755;BME280;41674;52.290;-1.474;2023-03-18T06:56:14;99834.53;;;12.31;85.02
55755;BME280;41674;52.290;-1.474;2023-03-18T06:58:44;99833.76;;;12.21;84.66
55755;BME280;41674;52.290;-1.474;2023-03-18T07:01:14;99836.63;;;11.74;86.54
55755;BME280;41674;52.290;-1.474;2023-03-18T07:03:43;99837.10;;;11.80;87.54
55755;BME280;41674;52.290;-1.474;2023-03-18T07:06:13;99834.63;;;12.49;85.08
55755;BME280;41674;52.290;-1.474;2023-03-18T07:08:42;99838.71;;;12.19;85.10
55755;BME280;41674;52.290;-1.474;2023-03-18T07:11:12;99837.38;;;12.54;85.19
55755;BME280;41674;52.290;-1.474;2023-03-18T07:13:41;99845.13;;;12.31;87.03
55755;BME280;41674;52.290;-1.474;2023-03-18T07:16:10;99846.43;;;11.92;87.52
55755;BME280;41674;52.290;-1.474;2023-03-18T07:18:39;99843.92;;;12.44;85.36
55755;BME280;41674;52.290;-1.474;2023-03-18T07:21:08;99845.46;;;13.06;82.51
55755;BME280;41674;52.290;-1.474;2023-03-18T07:23:38;99845.08;;;13.36;80.40
55755;BME280;41674;52.290;-1.474;2023-03-18T07:26:09;99847.51;;;13.79;78.95
55755;BME280;41674;52.290;-1.474;2023-03-18T07:28:37;99847.19;;;12.46;82.05
55755;BME280;41674;52.290;-1.474;2023-03-18T07:31:06;99847.06;;;13.05;81.12
55755;BME280;41674;52.290;-1.474;2023-03-18T07:33:36;99845.99;;;12.85;80.47
55755;BME280;41674;52.290;-1.474;2023-03-18T07:36:06;99842.41;;;13.53;78.14
55755;BME280;41674;52.290;-1.474;2023-03-18T07:38:35;99840.61;;;13.85;78.00
55755;BME280;41674;52.290;-1.474;2023-03-18T07:41:05;99843.16;;;11.86;84.99
55755;BME280;41674;52.290;-1.474;2023-03-18T07:43:34;99852.30;;;13.09;80.18
55755;BME280;41674;52.290;-1.474;2023-03-18T07:46:04;99853.69;;;12.68;82.06
55755;BME280;41674;52.290;-1.474;2023-03-18T07:48:35;99855.80;;;12.64;82.94
55755;BME280;41674;52.290;-1.474;2023-03-18T07:51:04;99858.29;;;13.50;79.53
55755;BME280;41674;52.290;-1.474;2023-03-18T07:53:32;99862.15;;;13.43;79.72
55755;BME280;41674;52.290;-1.474;2023-03-18T07:56:03;99864.90;;;13.82;80.08
55755;BME280;41674;52.290;-1.474;2023-03-18T07:58:32;99870.05;;;13.53;80.32
55755;BME280;41674;52.290;-1.474;2023-03-18T08:01:02;99869.60;;;13.37;81.36
55755;BME280;41674;52.290;-1.474;2023-03-18T08:03:41;99868.72;;;13.06;82.37
55755;BME280;41674;52.290;-1.474;2023-03-18T08:06:00;99870.52;;;12.71;84.57
55755;BME280;41674;52.290;-1.474;2023-03-18T08:08:29;99873.67;;;11.92;87.95
55755;BME280;41674;52.290;-1.474;2023-03-18T08:10:59;99872.94;;;12.91;85.10
55755;BME280;41674;52.290;-1.474;2023-03-18T08:13:28;99878.51;;;13.20;84.56
55755;BME280;41674;52.290;-1.474;2023-03-18T08:15:58;99878.90;;;12.58;87.40
55755;BME280;41674;52.290;-1.474;2023-03-18T08:18:28;99884.00;;;12.96;85.17
55755;BME280;41674;52.290;-1.474;2023-03-18T08:20:59;99886.56;;;13.05;85.45
55755;BME280;41674;52.290;-1.474;2023-03-18T08:23:27;99887.11;;;13.19;85.49
55755;BME280;41674;52.290;-1.474;2023-03-18T08:25:57;99893.75;;;13.31;84.69
55755;BME280;41674;52.290;-1.474;2023-03-18T08:28:27;99895.91;;;12.30;87.71
55755;BME280;41674;52.290;-1.474;2023-03-18T08:30:56;99895.58;;;12.76;85.42
55755;BME280;41674;52.290;-1.474;2023-03-18T08:33:26;99893.29;;;12.53;85.51
55755;BME280;41674;52.290;-1.474;2023-03-18T08:35:54;99896.81;;;12.58;86.74
55755;BME280;41674;52.290;-1.474;2023-03-18T08:38:24;99894.39;;;13.05;84.28
55755;BME280;41674;52.290;-1.474;2023-03-18T08:40:54;99895.23;;;12.59;85.01
55755;BME280;41674;52.290;-1.474;2023-03-18T08:43:23;99893.50;;;12.66;85.73
55755;BME280;41674;52.290;-1.474;2023-03-18T08:45:54;99893.50;;;13.23;84.48
55755;BME280;41674;52.290;-1.474;2023-03-18T08:48:24;99893.52;;;13.68;83.03
55755;BME280;41674;52.290;-1.474;2023-03-18T08:50:52;99895.55;;;13.31;82.79
55755;BME280;41674;52.290;-1.474;2023-03-18T08:53:21;99896.75;;;14.01;81.62
55755;BME280;41674;52.290;-1.474;2023-03-18T08:55:51;99898.21;;;13.36;82.79
55755;BME280;41674;52.290;-1.474;2023-03-18T08:58:20;99898.62;;;13.55;82.12
55755;BME280;41674;52.290;-1.474;2023-03-18T09:00:50;99899.83;;;13.44;81.41
55755;BME280;41674;52.290;-1.474;2023-03-18T09:03:19;99897.85;;;13.99;81.39
55755;BME280;41674;52.290;-1.474;2023-03-18T09:05:50;99898.36;;;13.85;80.34
55755;BME280;41674;52.290;-1.474;2023-03-18T09:08:18;99903.45;;;13.98;80.19
55755;BME280;41674;52.290;-1.474;2023-03-18T09:10:50;99903.83;;;14.15;79.81
55755;BME280;41674;52.290;-1.474;2023-03-18T09:13:17;99903.47;;;13.98;79.87
55755;BME280;41674;52.290;-1.474;2023-03-18T09:15:47;99903.56;;;13.51;81.10
55755;BME280;41674;52.290;-1.474;2023-03-18T09:18:17;99901.84;;;12.73;84.41
55755;BME280;41674;52.290;-1.474;2023-03-18T09:20:46;99904.68;;;13.18;81.81
55755;BME280;41674;52.290;-1.474;2023-03-18T09:23:16;99902.47;;;12.92;84.83
55755;BME280;41674;52.290;-1.474;2023-03-18T09:25:45;99902.98;;;12.31;85.39
55755;BME280;41674;52.290;-1.474;2023-03-18T09:28:15;99902.49;;;11.82;87.28
55755;BME280;41674;52.290;-1.474;2023-03-18T09:30:45;99899.30;;;11.20;87.26
55755;BME280;41674;52.290;-1.474;2023-03-18T09:33:14;99910.11;;;11.17;89.52
55755;BME280;41674;52.290;-1.474;2023-03-18T09:35:43;99907.90;;;11.24;89.23
55755;BME280;41674;52.290;-1.474;2023-03-18T09:38:15;99909.04;;;11.76;87.42
55755;BME280;41674;52.290;-1.474;2023-03-18T09:40:50;99908.03;;;12.31;85.99
55755;BME280;41674;52.290;-1.474;2023-03-18T09:43:22;99909.41;;;12.45;84.03
55755;BME280;41674;52.290;-1.474;2023-03-18T09:45:49;99916.23;;;10.91;88.03
55755;BME280;41674;52.290;-1.474;2023-03-18T09:48:29;99914.40;;;11.49;86.94
55755;BME280;41674;52.290;-1.474;2023-03-18T09:50:46;99915.42;;;11.23;89.82
55755;BME280;41674;52.290;-1.474;2023-03-18T09:53:16;99915.68;;;11.95;86.97
55755;BME280;41674;52.290;-1.474;2023-03-18T09:55:43;99914.61;;;11.73;85.65
55755;BME280;41674;52.290;-1.474;2023-03-18T09:58:20;99915.76;;;11.05;88.49
55755;BME280;41674;52.290;-1.474;2023-03-18T10:00:44;99916.04;;;11.56;87.26
55755;BME280;41674;52.290;-1.474;2023-03-18T10:03:13;99918.03;;;11.85;87.31
55755;BME280;41674;52.290;-1.474;2023-03-18T10:05:43;99922.60;;;11.04;87.00
55755;BME280;41674;52.290;-1.474;2023-03-18T10:08:14;99923.41;;;11.17;85.58
55755;BME280;41674;52.290;-1.474;2023-03-18T10:10:42;99923.63;;;11.38;85.49
55755;BME280;41674;52.290;-1.474;2023-03-18T10:13:13;99924.02;;;11.25;85.66
55755;BME280;41674;52.290;-1.474;2023-03-18T10:15:40;99925.15;;;11.06;89.06
55755;BME280;41674;52.290;-1.474;2023-03-18T10:18:11;99927.99;;;11.59;86.60
55755;BME280;41674;52.290;-1.474;2023-03-18T10:20:41;99933.36;;;11.02;86.48
55755;BME280;41674;52.290;-1.474;2023-03-18T10:23:11;99930.29;;;11.09;89.66
55755;BME280;41674;52.290;-1.474;2023-03-18T10:25:44;99929.26;;;10.68;89.21
55755;BME280;41674;52.290;-1.474;2023-03-18T10:28:27;99930.19;;;11.70;86.70
55755;BME280;41674;52.290;-1.474;2023-03-18T10:30:44;99927.90;;;11.57;86.15
55755;BME280;41674;52.290;-1.474;2023-03-18T10:33:08;99932.30;;;12.24;83.49
55755;BME280;41674;52.290;-1.474;2023-03-18T10:35:37;99929.50;;;11.80;85.84
55755;BME280;41674;52.290;-1.474;2023-03-18T10:38:04;99932.18;;;11.47;87.74
55755;BME280;41674;52.290;-1.474;2023-03-18T10:40:36;99930.98;;;12.08;86.74
55755;BME280;41674;52.290;-1.474;2023-03-18T10:43:02;99930.71;;;12.86;82.72
55755;BME280;41674;52.290;-1.474;2023-03-18T10:45:33;99933.58;;;12.51;82.80
55755;BME280;41674;52.290;-1.474;2023-03-18T10:48:04;99937.22;;;11.71;82.64
55755;BME280;41674;52.290;-1.474;2023-03-18T10:50:32;99934.43;;;12.63;79.33
55755;BME280;41674;52.290;-1.474;2023-03-18T10:53:05;99941.29;;;12.14;83.15
55755;BME280;41674;52.290;-1.474;2023-03-18T10:55:35;99938.28;;;12.25;83.11
55755;BME280;41674;52.290;-1.474;2023-03-18T10:58:00;99940.36;;;12.05;82.38
55755;BME280;41674;52.290;-1.474;2023-03-18T11:00:31;99936.86;;;12.82;80.12
55755;BME280;41674;52.290;-1.474;2023-03-18T11:02:59;99936.54;;;13.10;78.02
55755;BME280;41674;52.290;-1.474;2023-03-18T11:05:30;99938.09;;;12.67;78.95
55755;BME280;41674;52.290;-1.474;2023-03-18T11:07:59;99938.05;;;13.06;77.39
55755;BME280;41674;52.290;-1.474;2023-03-18T11:10:31;99937.11;;;12.53;78.13
55755;BME280;41674;52.290;-1.474;2023-03-18T11:12:58;99934.63;;;13.23;77.41
55755;BME280;41674;52.290;-1.474;2023-03-18T11:15:26;99936.41;;;13.65;74.99
55755;BME280;41674;52.290;-1.474;2023-03-18T11:17:59;99932.63;;;13.86;74.19
55755;BME280;41674;52.290;-1.474;2023-03-18T11:20:31;99932.76;;;14.03;72.71
55755;BME280;41674;52.290;-1.474;2023-03-18T11:23:03;99932.01;;;13.91;72.07
55755;BME280;41674;52.290;-1.474;2023-03-18T11:25:25;99930.09;;;13.55;73.54
55755;BME280;41674;52.290;-1.474;2023-03-18T11:28:01;99931.09;;;13.61;73.68
55755;BME280;41674;52.290;-1.474;2023-03-18T11:30:26;99932.31;;;14.75;69.05
55755;BME280;41674;52.290;-1.474;2023-03-18T11:32:55;99931.88;;;14.66;68.31
55755;BME280;41674;52.290;-1.474;2023-03-18T11:35:24;99930.13;;;14.20;70.20
55755;BME280;41674;52.290;-1.474;2023-03-18T11:37:52;99921.40;;;15.37;73.45
55755;BME280;41674;52.290;-1.474;2023-03-18T11:40:25;99926.44;;;15.27;63.92
55755;BME280;41674;52.290;-1.474;2023-03-18T11:42:55;99923.62;;;15.44;64.94
55755;BME280;41674;52.290;-1.474;2023-03-18T11:45:30;99916.99;;;15.27;67.83
55755;BME280;41674;52.290;-1.474;2023-03-18T11:47:50;99918.65;;;15.30;63.08
55755;BME280;41674;52.290;-1.474;2023-03-18T11:50:21;99918.92;;;15.99;60.56
55755;BME280;41674;52.290;-1.474;2023-03-18T11:52:53;99915.32;;;16.38;60.07
55755;BME280;41674;52.290;-1.474;2023-03-18T11:55:25;99921.60;;;15.48;64.08
55755;BME280;41674;52.290;-1.474;2023-03-18T11:58:02;99917.18;;;15.41;69.12
55755;BME280;41674;52.290;-1.474;2023-03-18T12:00:22;99920.99;;;15.06;65.61
55755;BME280;41674;52.290;-1.474;2023-03-18T12:03:00;99930.69;;;14.80;66.00
55755;BME280;41674;52.290;-1.474;2023-03-18T12:05:32;99934.73;;;14.30;65.75
55755;BME280;41674;52.290;-1.474;2023-03-18T12:07:57;99933.35;;;13.96;68.42
55755;BME280;41674;52.290;-1.474;2023-03-18T12:10:21;99935.22;;;14.28;68.10
55755;BME280;41674;52.290;-1.474;2023-03-18T12:12:55;99933.50;;;14.29;68.45
55755;BME280;41674;52.290;-1.474;2023-03-18T12:15:21;99928.74;;;13.47;70.67
55755;BME280;41674;52.290;-1.474;2023-03-18T12:17:48;99925.48;;;14.38;68.93
55755;BME280;41674;52.290;-1.474;2023-03-18T12:20:34;99916.95;;;15.19;67.13
55755;BME280;41674;52.290;-1.474;2023-03-18T12:25:25;99915.86;;;15.91;59.98
55755;BME280;41674;52.290;-1.474;2023-03-18T12:27:48;99914.85;;;15.78;60.95
55755;BME280;41674;52.290;-1.474;2023-03-18T12:30:23;99914.70;;;16.30;58.79
55755;BME280;41674;52.290;-1.474;2023-03-18T12:32:45;99910.29;;;16.99;58.27
55755;BME280;41674;52.290;-1.474;2023-03-18T12:35:24;99904.97;;;17.33;60.83
55755;BME280;41674;52.290;-1.474;2023-03-18T12:37:49;99902.63;;;17.59;51.29
55755;BME280;41674;52.290;-1.474;2023-03-18T12:40:19;99902.28;;;16.96;50.88
55755;BME280;41674;52.290;-1.474;2023-03-18T12:42:49;99902.52;;;17.93;50.94
55755;BME280;41674;52.290;-1.474;2023-03-18T12:45:10;99908.85;;;18.60;51.89
55755;BME280;41674;52.290;-1.474;2023-03-18T12:47:41;99907.30;;;18.65;50.95
55755;BME280;41674;52.290;-1.474;2023-03-18T12:50:15;99909.98;;;18.40;50.31
55755;BME280;41674;52.290;-1.474;2023-03-18T12:52:41;99916.15;;;18.08;48.12
55755;BME280;41674;52.290;-1.474;2023-03-18T12:55:15;99915.40;;;17.30;48.95
55755;BME280;41674;52.290;-1.474;2023-03-18T12:57:41;99911.51;;;16.41;50.46
55755;BME280;41674;52.290;-1.474;2023-03-18T13:00:15;99911.29;;;17.04;50.61
55755;BME280;41674;52.290;-1.474;2023-03-18T13:02:40;99913.23;;;16.57;51.45
55755;BME280;41674;52.290;-1.474;2023-03-18T13:05:15;99912.06;;;16.39;53.79